Duluth International Airport
KDLH : now visible

Airfield :











YOU CAN JOIN US ON...

 
LOGIN :

Register | Disclaimer

   EN    FR    IT 

 









Legend :    VFR   Marginal VFR   IFR   Intensive IFR   Very Intensive IFR
Visi :
Ceiling :
>= 8 km
>= 3000ft
5 to 8 km
1000 to 3000 ft
1500m to 5 km
500 to 1000 ft
800 to 1500m
200 to 500 ft
< 800m
< 200 ft
Symbols :   Thunderstorms  Fog  Heavy snow  Heavy precipitations  Wind > 20 kt






- Airport Elevation : 1428 ft
- IATA code : DLH


KDLH - Duluth International

CURRENT METAR :
  • 250155Z 10006KT 10SM FEW070 16/03 A3017 RMK AO2 SLP219 T01560033

EXPIRED METARs :
  • 250055Z 11008KT 10SM FEW065 FEW080 18/03 A3015 RMK AO2 SLP214 T01780028
  • 242355Z 13007KT 10SM FEW065 FEW080 19/02 A3015 RMK AO2 SLP215 T01940022 10206 20183 56008

TAF KDLH
Valid from the 25 at 00:00 until the 26 at 00:00 UTC


242321Z 2500/2524 12006KT P6SM SCT080
FM251300 10005KT P6SM -RA BKN060
FM251700 08010G17KT 3SM RA BKN007
FM252200 07013G24KT 1 1/2SM RA BKN004
KZMP FIR / North America



MET'MAP, your aeronautical weather chart ! - Copyright ORBIFLY December 2007 - Disclaimer

ORBIFLY MET'MAP TEAM :

Programming & Development : Alexandra Zaïnal
Original concept : Baudouin d'Aumeries
Technical & hardware support : Manuel Goepfert
Assistance : Marc-Olivier Méhu

Contact : metmap@orbifly.com




SOURCES & CREDITS :

   NOAA       Earth
Advisory